Time;durP1;ratioP1;P1;durP2;ratioP2;P2;SDS_P1;SDS_P2;PMS_P1;PMS_P2;Temp;Humidity;BMP_temperature;BMP_pressure;BME280_temperature;BME280_humidity;BME280_pressure;Samples;Min_cycle;Max_cycle;Signal;HPM_P1;HPM_P2
2022/06/10 00:01:08;;;;;;;2.50;1.50;;;;;;;;;;4994385;28;20541;-85
2022/06/10 00:04:12;;;;;;;4.20;1.60;;;;;;;;;;5011491;28;20198;-85
2022/06/10 00:07:16;;;;;;;7.23;1.87;;;;;;;;;;4986094;28;20213;-85
2022/06/10 00:10:23;;;;;;;2.97;1.50;;;;;;;;;;4974866;28;20179;-85
2022/06/10 00:13:31;;;;;;;5.27;1.77;;;;;;;;;;4975060;28;20197;-85
2022/06/10 00:16:37;;;;;;;3.33;1.50;;;;;;;;;;4966315;28;20219;-85
2022/06/10 00:19:40;;;;;;;4.30;1.70;;;;;;;;;;5003309;28;20217;-85
2022/06/10 00:22:45;;;;;;;2.33;1.70;;;;;;;;;;4994325;28;20185;-85
2022/06/10 00:25:49;;;;;;;3.63;2.13;;;;;;;;;;4987368;28;20221;-85
2022/06/10 00:28:54;;;;;;;3.67;1.83;;;;;;;;;;4984939;28;20177;-85
2022/06/10 00:31:59;;;;;;;2.60;1.77;;;;;;;;;;5004947;28;20189;-85
2022/06/10 00:35:04;;;;;;;3.67;1.80;;;;;;;;;;4955029;28;20183;-85
2022/06/10 00:38:08;;;;;;;2.50;1.57;;;;;;;;;;4955189;28;20206;-85
2022/06/10 00:41:13;;;;;;;3.70;1.90;;;;;;;;;;4992191;28;20264;-85
2022/06/10 00:44:32;;;;;;;4.47;1.60;;;;;;;;;;5004723;28;20201;-85
2022/06/10 00:47:40;;;;;;;3.37;1.90;;;;;;;;;;5014534;28;20533;-85
2022/06/10 00:50:45;;;;;;;5.00;1.97;;;;;;;;;;5000341;28;20181;-86
2022/06/10 00:54:07;;;;;;;5.47;2.07;;;;;;;;;;5008217;28;20542;-86
2022/06/10 00:57:19;;;;;;;4.37;1.73;;;;;;;;;;4973861;28;20218;-86
2022/06/10 01:00:23;;;;;;;3.63;1.80;;;;;;;;;;4973591;28;20178;-86
2022/06/10 01:03:27;;;;;;;4.97;1.90;;;;;;;;;;4974288;28;20194;-84
2022/06/10 01:06:31;;;;;;;3.07;1.70;;;;;;;;;;4984862;28;20217;-84
2022/06/10 01:09:36;;;;;;;4.20;2.00;;;;;;;;;;5001288;28;20186;-84
2022/06/10 01:13:18;;;;;;;4.40;1.90;;;;;;;;;;4987801;28;20186;-84
2022/06/10 01:17:11;;;;;;;4.07;1.90;;;;;;;;;;4973818;28;20214;-85
2022/06/10 01:20:43;;;;;;;8.20;2.60;;;;;;;;;;4985992;28;20213;-84
2022/06/10 01:24:07;;;;;;;3.93;1.90;;;;;;;;;;5015586;28;20181;-84
2022/06/10 01:27:48;;;;;;;5.10;2.23;;;;;;;;;;4993286;28;20221;-84
2022/06/10 01:31:12;;;;;;;6.67;2.10;;;;;;;;;;4977820;28;20190;-85
2022/06/10 01:34:26;;;;;;;5.87;2.50;;;;;;;;;;4977838;28;20198;-85
2022/06/10 01:37:43;;;;;;;3.30;1.90;;;;;;;;;;4984903;28;20182;-85
2022/06/10 01:40:57;;;;;;;3.93;2.27;;;;;;;;;;4998902;28;20189;-85
2022/06/10 01:44:13;;;;;;;5.50;2.83;;;;;;;;;;5004135;28;20182;-85
2022/06/10 01:47:27;;;;;;;4.93;2.60;;;;;;;;;;4991601;28;20709;-85
2022/06/10 01:50:47;;;;;;;4.13;2.13;;;;;;;;;;4981151;28;20189;-85
2022/06/10 01:54:00;;;;;;;5.40;2.10;;;;;;;;;;4995011;28;20665;-85
2022/06/10 01:57:09;;;;;;;5.80;2.30;;;;;;;;;;4984086;28;20218;-85
2022/06/10 02:00:18;;;;;;;7.10;2.20;;;;;;;;;;4964917;28;20570;-85
2022/06/10 02:03:37;;;;;;;3.07;2.00;;;;;;;;;;4984112;28;20194;-85
2022/06/10 02:06:49;;;;;;;2.00;1.60;;;;;;;;;;4987216;28;20221;-85
2022/06/10 02:10:15;;;;;;;7.53;2.20;;;;;;;;;;4972667;28;20189;-85
2022/06/10 02:13:26;;;;;;;4.17;2.10;;;;;;;;;;5015091;28;20190;-84
2022/06/10 02:16:33;;;;;;;3.50;2.10;;;;;;;;;;5003194;28;20221;-85
2022/06/10 02:19:44;;;;;;;5.17;2.20;;;;;;;;;;4985206;28;20209;-84
2022/06/10 02:22:48;;;;;;;7.03;2.97;;;;;;;;;;5003327;28;20194;-84
2022/06/10 02:25:56;;;;;;;8.33;2.77;;;;;;;;;;4992308;28;20213;-84
2022/06/10 02:29:17;;;;;;;5.20;2.73;;;;;;;;;;5002969;28;20185;-84
2022/06/10 02:32:23;;;;;;;5.87;2.40;;;;;;;;;;4976548;28;20539;-84
2022/06/10 02:35:35;;;;;;;5.77;2.00;;;;;;;;;;4983560;28;20217;-84
2022/06/10 02:39:01;;;;;;;5.00;2.40;;;;;;;;;;4983592;28;20178;-84
2022/06/10 02:42:12;;;;;;;4.77;2.27;;;;;;;;;;4985009;28;20198;-84
2022/06/10 02:45:43;;;;;;;3.60;2.30;;;;;;;;;;4972158;28;20217;-85
2022/06/10 02:49:04;;;;;;;5.00;2.30;;;;;;;;;;4972469;28;20186;-84
2022/06/10 02:52:12;;;;;;;2.43;2.10;;;;;;;;;;4975126;28;20183;-84
2022/06/10 02:55:19;;;;;;;3.87;2.00;;;;;;;;;;4984017;28;20226;-85
2022/06/10 03:02:04;;;;;;;4.43;2.27;;;;;;;;;;5003003;28;20181;-85
2022/06/10 03:05:37;;;;;;;4.53;2.00;;;;;;;;;;5002338;28;20193;-85
2022/06/10 03:08:47;;;;;;;5.07;1.87;;;;;;;;;;4995494;28;20177;-85
2022/06/10 03:12:00;;;;;;;4.67;2.07;;;;;;;;;;4967600;28;20198;-84
2022/06/10 03:15:38;;;;;;;3.37;1.93;;;;;;;;;;4993750;28;20194;-84
2022/06/10 03:18:52;;;;;;;3.30;1.90;;;;;;;;;;5005656;28;20186;-85
2022/06/10 03:22:16;;;;;;;5.80;2.27;;;;;;;;;;4967288;28;20191;-85
2022/06/10 03:25:26;;;;;;;5.83;2.17;;;;;;;;;;4986822;28;20213;-85
2022/06/10 03:28:39;;;;;;;3.43;1.93;;;;;;;;;;5006020;28;20185;-85
2022/06/10 03:31:48;;;;;;;4.80;1.97;;;;;;;;;;4994959;28;20198;-85
2022/06/10 03:35:10;;;;;;;4.63;2.00;;;;;;;;;;4997288;28;20190;-85
2022/06/10 03:38:15;;;;;;;3.63;2.27;;;;;;;;;;4986495;28;20179;-85
2022/06/10 03:41:30;;;;;;;3.83;2.10;;;;;;;;;;4967069;28;20175;-85
2022/06/10 03:44:34;;;;;;;7.57;2.37;;;;;;;;;;4990104;28;20672;-85
2022/06/10 03:47:39;;;;;;;3.13;2.27;;;;;;;;;;5002586;28;20190;-85
2022/06/10 03:50:46;;;;;;;3.37;2.03;;;;;;;;;;4986576;28;20174;-84
2022/06/10 03:53:50;;;;;;;5.23;2.10;;;;;;;;;;4975655;28;20650;-85
2022/06/10 03:56:55;;;;;;;5.33;2.40;;;;;;;;;;4975490;28;20702;-85
2022/06/10 03:59:59;;;;;;;2.43;1.70;;;;;;;;;;4997230;28;20210;-84
2022/06/10 04:03:03;;;;;;;4.53;2.07;;;;;;;;;;4991085;28;20197;-85
2022/06/10 04:06:08;;;;;;;5.07;2.00;;;;;;;;;;4976401;28;20221;-85
2022/06/10 04:09:13;;;;;;;4.67;2.07;;;;;;;;;;5007666;28;20190;-85
2022/06/10 04:12:19;;;;;;;3.10;1.90;;;;;;;;;;4994362;28;20193;-85
2022/06/10 04:15:25;;;;;;;3.20;1.90;;;;;;;;;;4981798;28;20225;-85
2022/06/10 04:18:30;;;;;;;4.30;2.30;;;;;;;;;;4985579;28;20182;-85
2022/06/10 04:21:34;;;;;;;3.20;1.70;;;;;;;;;;4974759;28;20183;-85
2022/06/10 04:24:38;;;;;;;3.00;1.87;;;;;;;;;;4986983;28;20194;-85
2022/06/10 04:27:43;;;;;;;2.53;1.80;;;;;;;;;;4994054;28;20178;-85
2022/06/10 04:30:49;;;;;;;2.60;2.03;;;;;;;;;;4992044;28;20529;-85
2022/06/10 04:33:53;;;;;;;4.03;2.30;;;;;;;;;;4988464;28;20640;-86
2022/06/10 04:36:57;;;;;;;3.53;2.17;;;;;;;;;;5004856;28;20213;-86
2022/06/10 04:40:02;;;;;;;4.83;2.10;;;;;;;;;;4965750;28;20207;-86
2022/06/10 04:43:07;;;;;;;4.70;1.70;;;;;;;;;;4966408;28;20183;-86
2022/06/10 04:46:27;;;;;;;4.67;2.10;;;;;;;;;;4965883;28;20693;-86
2022/06/10 04:49:31;;;;;;;3.67;2.10;;;;;;;;;;4955037;28;20187;-85
2022/06/10 04:52:35;;;;;;;2.57;2.03;;;;;;;;;;4965733;28;20202;-85
2022/06/10 04:55:40;;;;;;;3.23;1.93;;;;;;;;;;4976952;28;20218;-85
2022/06/10 04:58:44;;;;;;;2.67;2.00;;;;;;;;;;4976956;28;20187;-86
2022/06/10 05:01:50;;;;;;;4.10;2.33;;;;;;;;;;4966300;28;20175;-84
2022/06/10 05:04:54;;;;;;;3.97;2.37;;;;;;;;;;4966367;28;20187;-85
2022/06/10 05:07:58;;;;;;;8.07;1.97;;;;;;;;;;4954582;28;20183;-86
2022/06/10 05:11:02;;;;;;;3.80;2.10;;;;;;;;;;4964943;28;20175;-85
2022/06/10 05:14:06;;;;;;;3.27;2.23;;;;;;;;;;4965573;28;20183;-84
2022/06/10 05:17:11;;;;;;;7.73;3.20;;;;;;;;;;4954244;28;20223;-86
2022/06/10 05:20:25;;;;;;;5.80;2.00;;;;;;;;;;4954495;28;20207;-85
2022/06/10 05:23:29;;;;;;;3.63;2.10;;;;;;;;;;4965436;28;20183;-84
2022/06/10 05:26:34;;;;;;;4.20;2.20;;;;;;;;;;4967913;28;20213;-84
2022/06/10 05:29:38;;;;;;;4.27;2.20;;;;;;;;;;4985373;28;20178;-84
2022/06/10 05:32:42;;;;;;;4.50;2.27;;;;;;;;;;4996157;28;20181;-85
2022/06/10 05:35:46;;;;;;;7.17;2.37;;;;;;;;;;4983847;28;20214;-86
2022/06/10 05:38:51;;;;;;;4.30;2.40;;;;;;;;;;4972323;28;20198;-85
2022/06/10 05:42:04;;;;;;;8.20;2.27;;;;;;;;;;4972536;28;20198;-85
2022/06/10 05:45:13;;;;;;;6.63;2.10;;;;;;;;;;4982842;28;20194;-85
2022/06/10 05:48:17;;;;;;;3.13;1.90;;;;;;;;;;4983143;28;20194;-84
2022/06/10 05:51:22;;;;;;;5.27;2.23;;;;;;;;;;4983454;28;20202;-85
2022/06/10 05:54:26;;;;;;;5.63;2.30;;;;;;;;;;4983553;28;20178;-84
2022/06/10 05:57:31;;;;;;;5.93;2.20;;;;;;;;;;4972213;28;20519;-84
2022/06/10 06:00:35;;;;;;;6.03;2.33;;;;;;;;;;4994453;28;20210;-86
2022/06/10 06:03:39;;;;;;;5.77;2.60;;;;;;;;;;4972129;28;20633;-85
2022/06/10 06:06:43;;;;;;;8.03;2.60;;;;;;;;;;4982998;28;20217;-86
2022/06/10 06:09:48;;;;;;;5.87;2.40;;;;;;;;;;4971477;28;20190;-84
2022/06/10 06:12:52;;;;;;;8.67;2.80;;;;;;;;;;4982846;28;20201;-84
2022/06/10 06:15:56;;;;;;;4.47;2.70;;;;;;;;;;4982754;28;20560;-85
2022/06/10 06:19:01;;;;;;;7.00;2.80;;;;;;;;;;4982673;28;20174;-84
2022/06/10 06:22:06;;;;;;;3.87;2.40;;;;;;;;;;4971579;28;20183;-85
2022/06/10 06:25:15;;;;;;;5.37;2.57;;;;;;;;;;4994531;28;20182;-84
2022/06/10 06:28:19;;;;;;;7.00;2.67;;;;;;;;;;4982260;28;20678;-85
2022/06/10 06:31:23;;;;;;;5.07;2.33;;;;;;;;;;4971955;28;20178;-85
2022/06/10 06:34:28;;;;;;;4.07;2.53;;;;;;;;;;4971864;28;20182;-84
2022/06/10 06:37:31;;;;;;;4.33;2.50;;;;;;;;;;4971346;28;20186;-85
2022/06/10 06:40:36;;;;;;;6.27;2.30;;;;;;;;;;4971541;28;20214;-84
2022/06/10 06:43:40;;;;;;;4.80;2.70;;;;;;;;;;4971543;28;20515;-85
2022/06/10 06:46:44;;;;;;;5.83;2.47;;;;;;;;;;4981848;28;20221;-85
2022/06/10 06:49:48;;;;;;;5.83;2.37;;;;;;;;;;4993817;28;20178;-85
2022/06/10 06:52:53;;;;;;;3.60;2.93;;;;;;;;;;4982836;28;20182;-86
2022/06/10 06:55:58;;;;;;;4.97;2.50;;;;;;;;;;4971025;28;20218;-86
2022/06/10 06:59:04;;;;;;;3.83;2.27;;;;;;;;;;4982423;28;20621;-86
2022/06/10 07:02:08;;;;;;;3.70;2.40;;;;;;;;;;4971326;28;20179;-85
2022/06/10 07:05:13;;;;;;;7.33;2.73;;;;;;;;;;4970728;28;20538;-84
2022/06/10 07:08:17;;;;;;;4.50;2.10;;;;;;;;;;4971105;28;20202;-86
2022/06/10 07:11:21;;;;;;;6.77;3.03;;;;;;;;;;4951454;28;20174;-85
2022/06/10 07:14:25;;;;;;;5.17;2.53;;;;;;;;;;4962947;28;20178;-85
2022/06/10 07:17:29;;;;;;;4.23;2.47;;;;;;;;;;4993962;28;20190;-85
2022/06/10 07:20:36;;;;;;;4.87;2.50;;;;;;;;;;4971046;28;20225;-85
2022/06/10 07:23:40;;;;;;;3.30;2.20;;;;;;;;;;4982289;28;20201;-85
2022/06/10 07:26:44;;;;;;;5.33;2.77;;;;;;;;;;4969068;28;20561;-85
2022/06/10 07:29:49;;;;;;;5.00;2.40;;;;;;;;;;4981521;28;20182;-85
2022/06/10 07:32:54;;;;;;;4.47;2.50;;;;;;;;;;4973261;28;20198;-85
2022/06/10 07:35:58;;;;;;;3.50;2.70;;;;;;;;;;4982686;28;20226;-83
2022/06/10 07:39:03;;;;;;;5.53;2.73;;;;;;;;;;4968593;28;20198;-83
2022/06/10 07:42:07;;;;;;;3.77;1.90;;;;;;;;;;4981738;28;20563;-83
2022/06/10 07:45:11;;;;;;;4.03;2.10;;;;;;;;;;4970423;28;20194;-83
2022/06/10 07:48:15;;;;;;;4.57;1.93;;;;;;;;;;4981273;28;20190;-83
2022/06/10 07:51:20;;;;;;;5.77;2.23;;;;;;;;;;4998172;28;20182;-83
2022/06/10 07:54:24;;;;;;;3.90;2.50;;;;;;;;;;4986231;28;20561;-85
2022/06/10 07:57:28;;;;;;;6.40;2.40;;;;;;;;;;4996142;28;20191;-83
2022/06/10 08:00:34;;;;;;;3.63;2.20;;;;;;;;;;4965779;28;20209;-83
2022/06/10 08:03:38;;;;;;;4.30;2.17;;;;;;;;;;4976245;28;20187;-81
2022/06/10 08:06:46;;;;;;;3.17;1.93;;;;;;;;;;4989403;28;20224;-83
2022/06/10 08:09:50;;;;;;;4.73;2.30;;;;;;;;;;4996067;28;20539;-84
2022/06/10 08:12:54;;;;;;;4.07;1.80;;;;;;;;;;4987075;28;20181;-85
2022/06/10 08:15:58;;;;;;;3.17;2.03;;;;;;;;;;4972098;28;20235;-82
2022/06/10 08:19:03;;;;;;;4.43;2.27;;;;;;;;;;4995318;28;20193;-82
2022/06/10 08:25:31;;;;;;;4.30;2.53;;;;;;;;;;4984562;28;20697;-84
2022/06/10 08:28:38;;;;;;;4.63;1.92;;;;;;;;;;4973198;28;20187;-84
2022/06/10 08:31:42;;;;;;;2.75;2.10;;;;;;;;;;4972029;28;20536;-84
2022/06/10 08:34:47;;;;;;;2.87;2.20;;;;;;;;;;4985329;28;20194;-83
2022/06/10 08:37:50;;;;;;;4.22;2.50;;;;;;;;;;4995316;28;20189;-84
2022/06/10 08:41:24;;;;;;;3.72;1.92;;;;;;;;;;4973566;28;20211;-83
2022/06/10 08:44:49;;;;;;;4.03;2.20;;;;;;;;;;4968890;28;20203;-83
2022/06/10 08:48:33;;;;;;;6.15;2.10;;;;;;;;;;4983902;28;20220;-82
2022/06/10 08:51:51;;;;;;;4.60;1.98;;;;;;;;;;4973542;28;20196;-83
2022/06/10 08:55:32;;;;;;;4.32;2.08;;;;;;;;;;4984259;28;20541;-83
2022/06/10 08:58:53;;;;;;;3.78;2.15;;;;;;;;;;4980568;28;20193;-83
2022/06/10 09:02:10;;;;;;;2.67;1.80;;;;;;;;;;4969843;28;20690;-83
2022/06/10 09:05:23;;;;;;;6.15;1.90;;;;;;;;;;4987835;28;20223;-83
2022/06/10 09:08:33;;;;;;;2.70;1.67;;;;;;;;;;4982600;28;20646;-83
2022/06/10 09:11:48;;;;;;;4.93;1.50;;;;;;;;;;4981233;28;20195;-84
2022/06/10 09:14:57;;;;;;;10.93;2.25;;;;;;;;;;4972593;28;20206;-83
2022/06/10 09:18:11;;;;;;;3.50;1.92;;;;;;;;;;4981557;28;20205;-83
2022/06/10 09:21:43;;;;;;;5.72;2.10;;;;;;;;;;4964274;28;20214;-83
2022/06/10 09:25:10;;;;;;;2.70;1.80;;;;;;;;;;4975468;28;20193;-83
2022/06/10 09:28:14;;;;;;;4.60;2.10;;;;;;;;;;4964031;28;20190;-83
2022/06/10 09:31:36;;;;;;;4.60;1.88;;;;;;;;;;4982984;28;20191;-84
2022/06/10 09:35:16;;;;;;;3.63;1.70;;;;;;;;;;4972271;28;20191;-84
2022/06/10 09:39:00;;;;;;;3.90;1.88;;;;;;;;;;4972228;28;20193;-85
2022/06/10 09:42:26;;;;;;;2.58;1.80;;;;;;;;;;4994462;28;20217;-84
2022/06/10 09:45:45;;;;;;;4.35;1.60;;;;;;;;;;4971222;28;20228;-84
2022/06/10 09:49:12;;;;;;;5.07;1.73;;;;;;;;;;4989615;28;20194;-83
2022/06/10 09:52:19;;;;;;;4.07;1.40;;;;;;;;;;4983125;28;20191;-84
2022/06/10 09:55:42;;;;;;;2.75;1.80;;;;;;;;;;4967504;28;20226;-83
2022/06/10 09:59:11;;;;;;;3.17;1.52;;;;;;;;;;4971702;28;20190;-84
2022/06/10 10:02:35;;;;;;;3.53;1.63;;;;;;;;;;4971574;28;20218;-83
2022/06/10 10:06:12;;;;;;;3.60;1.60;;;;;;;;;;4967150;28;20217;-84
2022/06/10 10:09:16;;;;;;;4.03;1.85;;;;;;;;;;4993670;28;20183;-83
2022/06/10 10:12:43;;;;;;;7.13;1.70;;;;;;;;;;4971068;28;20170;-84
2022/06/10 10:15:56;;;;;;;2.55;1.38;;;;;;;;;;4969969;28;20226;-83
2022/06/10 10:19:25;;;;;;;2.42;1.60;;;;;;;;;;4981797;28;20531;-83
2022/06/10 10:22:44;;;;;;;5.18;1.75;;;;;;;;;;4972275;28;20214;-83
2022/06/10 10:25:48;;;;;;;7.25;1.85;;;;;;;;;;4970078;28;20558;-84
2022/06/10 10:28:59;;;;;;;2.05;1.40;;;;;;;;;;4980855;28;20197;-83
2022/06/10 10:32:09;;;;;;;4.30;1.70;;;;;;;;;;4983221;28;20196;-84
2022/06/10 10:35:27;;;;;;;4.13;1.50;;;;;;;;;;4980257;28;20195;-83
2022/06/10 10:38:35;;;;;;;7.38;2.75;;;;;;;;;;4990669;28;20192;-83
2022/06/10 10:41:43;;;;;;;6.55;2.38;;;;;;;;;;4970103;28;20544;-82
2022/06/10 10:45:05;;;;;;;6.20;2.67;;;;;;;;;;4979625;28;20176;-83
2022/06/10 10:48:25;;;;;;;2.65;1.58;;;;;;;;;;4991388;28;20193;-83
2022/06/10 10:51:41;;;;;;;5.47;3.00;;;;;;;;;;4981361;28;20180;-83
2022/06/10 10:54:48;;;;;;;1.98;1.45;;;;;;;;;;4971688;28;20188;-83
2022/06/10 10:58:25;;;;;;;4.53;2.47;;;;;;;;;;4982454;28;20184;-83
2022/06/10 11:01:43;;;;;;;3.92;2.05;;;;;;;;;;4979139;28;20550;-83
2022/06/10 11:04:47;;;;;;;3.60;1.30;;;;;;;;;;4978959;28;20545;-83
2022/06/10 11:08:16;;;;;;;3.88;1.92;;;;;;;;;;4966658;28;20190;-83
2022/06/10 11:11:24;;;;;;;3.58;1.45;;;;;;;;;;4992672;28;20190;-83
2022/06/10 11:14:38;;;;;;;3.22;1.58;;;;;;;;;;4990279;28;20190;-83
2022/06/10 11:17:46;;;;;;;2.30;1.50;;;;;;;;;;4970815;28;20195;-81
2022/06/10 11:20:50;;;;;;;8.02;1.80;;;;;;;;;;4993047;28;20191;-87
2022/06/10 11:23:58;;;;;;;4.07;1.65;;;;;;;;;;4970095;28;20198;-85
2022/06/10 11:27:20;;;;;;;3.58;1.30;;;;;;;;;;5004189;28;20579;-84
2022/06/10 11:30:42;;;;;;;3.28;1.40;;;;;;;;;;4976717;28;20253;-84
2022/06/10 11:33:50;;;;;;;6.47;1.38;;;;;;;;;;5002621;28;20190;-84
2022/06/10 11:36:56;;;;;;;7.63;1.70;;;;;;;;;;4996626;28;20222;-84
2022/06/10 11:40:28;;;;;;;2.40;1.25;;;;;;;;;;4954909;28;20543;-85
2022/06/10 11:43:46;;;;;;;3.35;1.60;;;;;;;;;;4977090;28;20183;-85
2022/06/10 11:47:00;;;;;;;3.53;1.10;;;;;;;;;;4985422;28;20232;-84
2022/06/10 11:50:20;;;;;;;1.83;1.25;;;;;;;;;;4967383;28;20186;-84
2022/06/10 11:53:30;;;;;;;2.28;1.20;;;;;;;;;;4966797;28;20624;-84
2022/06/10 12:00:38;;;;;;;4.13;1.42;;;;;;;;;;4989923;28;20644;-84
2022/06/10 12:03:52;;;;;;;3.35;1.45;;;;;;;;;;4974808;28;20189;-83
2022/06/10 12:07:04;;;;;;;3.42;1.40;;;;;;;;;;4985170;28;20566;-85
2022/06/10 12:10:16;;;;;;;3.97;1.67;;;;;;;;;;4973686;28;20198;-85
2022/06/10 12:13:22;;;;;;;4.22;1.73;;;;;;;;;;4985544;28;20210;-85
2022/06/10 12:16:30;;;;;;;3.50;1.70;;;;;;;;;;4984405;28;20683;-84
2022/06/10 12:19:41;;;;;;;4.25;1.40;;;;;;;;;;4996677;28;20192;-83
2022/06/10 12:22:46;;;;;;;2.20;1.48;;;;;;;;;;4985787;28;20224;-84
2022/06/10 12:25:57;;;;;;;2.05;1.30;;;;;;;;;;4983674;28;20211;-84
2022/06/10 12:29:17;;;;;;;3.53;1.60;;;;;;;;;;4982382;28;20189;-85
2022/06/10 12:32:36;;;;;;;3.28;1.52;;;;;;;;;;4972803;28;20542;-84
2022/06/10 12:35:42;;;;;;;2.22;1.35;;;;;;;;;;4984771;28;20218;-83
2022/06/10 12:38:50;;;;;;;2.95;1.17;;;;;;;;;;4972994;28;20642;-83
2022/06/10 12:42:03;;;;;;;2.22;1.15;;;;;;;;;;4979893;28;20213;-84
2022/06/10 12:45:20;;;;;;;4.32;1.20;;;;;;;;;;5000454;28;20207;-84
2022/06/10 12:48:28;;;;;;;2.15;1.50;;;;;;;;;;4983086;28;20273;-84
2022/06/10 12:51:39;;;;;;;4.10;1.50;;;;;;;;;;4974671;28;20202;-85
2022/06/10 12:54:56;;;;;;;3.38;1.35;;;;;;;;;;4982488;28;20539;-83
2022/06/10 12:58:00;;;;;;;4.13;1.60;;;;;;;;;;4953398;28;20183;-83
2022/06/10 13:01:21;;;;;;;1.92;1.27;;;;;;;;;;4976530;28;20183;-84
2022/06/10 13:04:25;;;;;;;2.67;1.30;;;;;;;;;;4964546;28;20176;-84
2022/06/10 13:07:38;;;;;;;1.45;1.00;;;;;;;;;;4963901;28;20206;-84
2022/06/10 13:10:43;;;;;;;2.00;0.98;;;;;;;;;;4981921;28;20202;-84
2022/06/10 13:14:12;;;;;;;2.50;1.30;;;;;;;;;;4992374;28;20178;-84
2022/06/10 13:17:26;;;;;;;1.80;1.15;;;;;;;;;;5001857;28;20225;-84
2022/06/10 13:20:38;;;;;;;1.92;1.13;;;;;;;;;;4954926;28;20184;-84
2022/06/10 13:24:09;;;;;;;1.95;1.00;;;;;;;;;;5001056;28;20209;-84
2022/06/10 13:27:31;;;;;;;1.27;0.98;;;;;;;;;;5004909;28;20221;-84
2022/06/10 13:30:35;;;;;;;7.50;1.25;;;;;;;;;;4953921;28;20191;-84
2022/06/10 13:33:57;;;;;;;3.15;1.17;;;;;;;;;;4991504;28;20181;-84
2022/06/10 13:37:14;;;;;;;1.88;1.10;;;;;;;;;;4978989;28;20221;-84
2022/06/10 13:40:25;;;;;;;10.05;1.55;;;;;;;;;;5014126;28;20664;-84
2022/06/10 13:43:32;;;;;;;3.85;1.10;;;;;;;;;;4964053;28;20218;-84
2022/06/10 13:46:37;;;;;;;1.45;0.90;;;;;;;;;;4974797;28;20227;-82
2022/06/10 13:50:11;;;;;;;3.22;1.30;;;;;;;;;;4992332;28;20190;-84
2022/06/10 13:53:39;;;;;;;5.68;1.35;;;;;;;;;;4974687;28;20187;-85
2022/06/10 13:56:43;;;;;;;3.35;1.10;;;;;;;;;;4963804;28;20213;-85
2022/06/10 14:00:05;;;;;;;3.10;1.10;;;;;;;;;;4963755;28;20187;-85
2022/06/10 14:03:30;;;;;;;2.28;1.20;;;;;;;;;;4974278;28;20215;-85
2022/06/10 14:06:47;;;;;;;4.78;1.10;;;;;;;;;;4996686;28;20221;-85
2022/06/10 14:09:52;;;;;;;4.57;1.20;;;;;;;;;;5002035;28;20685;-86
2022/06/10 14:13:03;;;;;;;1.13;1.02;;;;;;;;;;4963828;28;20186;-86
2022/06/10 14:16:15;;;;;;;2.72;1.25;;;;;;;;;;4993644;28;20214;-86
2022/06/10 14:19:20;;;;;;;2.22;0.95;;;;;;;;;;4994885;28;20522;-85
2022/06/10 14:22:27;;;;;;;8.48;1.35;;;;;;;;;;5009424;28;20213;-84
2022/06/10 14:25:32;;;;;;;2.67;1.02;;;;;;;;;;4998251;28;20567;-85
2022/06/10 14:28:38;;;;;;;2.38;1.20;;;;;;;;;;4974137;28;20202;-85
2022/06/10 14:31:49;;;;;;;3.58;1.20;;;;;;;;;;4977692;28;20203;-84
2022/06/10 14:34:57;;;;;;;2.17;1.13;;;;;;;;;;4970448;28;20660;-84
2022/06/10 14:38:04;;;;;;;1.65;1.10;;;;;;;;;;4992805;28;20186;-84
2022/06/10 14:41:11;;;;;;;4.32;1.40;;;;;;;;;;4978082;28;20186;-84
2022/06/10 14:44:25;;;;;;;3.92;1.15;;;;;;;;;;4981921;28;20222;-84
2022/06/10 14:47:33;;;;;;;2.40;1.40;;;;;;;;;;4983910;28;20186;-84
2022/06/10 14:50:40;;;;;;;1.95;0.93;;;;;;;;;;4972543;28;20182;-84
2022/06/10 14:53:52;;;;;;;3.92;1.40;;;;;;;;;;4983435;28;20190;-85
2022/06/10 14:56:58;;;;;;;2.75;1.02;;;;;;;;;;4984615;28;20214;-85
2022/06/10 15:00:09;;;;;;;2.55;1.40;;;;;;;;;;4981447;28;20182;-84
2022/06/10 15:03:27;;;;;;;2.08;1.00;;;;;;;;;;4997418;28;20251;-82
2022/06/10 15:06:36;;;;;;;1.50;1.00;;;;;;;;;;5002322;28;20218;-82
2022/06/10 15:09:42;;;;;;;11.32;1.70;;;;;;;;;;4990539;28;20195;-83
2022/06/10 15:12:48;;;;;;;7.53;1.20;;;;;;;;;;4983558;28;20570;-84
2022/06/10 15:15:53;;;;;;;2.80;1.00;;;;;;;;;;4990786;28;20566;-84
2022/06/10 15:18:57;;;;;;;3.53;1.10;;;;;;;;;;4988355;28;20186;-84
2022/06/10 15:22:01;;;;;;;1.45;1.00;;;;;;;;;;4974319;28;20186;-84
2022/06/10 15:25:22;;;;;;;2.97;1.10;;;;;;;;;;4974645;28;20186;-84
2022/06/10 15:28:28;;;;;;;3.10;1.10;;;;;;;;;;4996483;28;20185;-84
2022/06/10 15:31:33;;;;;;;4.43;1.60;;;;;;;;;;4994265;28;20189;-85
2022/06/10 15:40:42;;;;;;;1.58;1.00;;;;;;;;;;4975597;28;20187;-85
2022/06/10 15:41:41;;;;;;;4.30;1.10;;;;;;;;;;4981814;28;20202;-85
2022/06/10 15:44:46;;;;;;;3.40;1.20;;;;;;;;;;4995509;28;20185;-84
2022/06/10 15:47:50;;;;;;;3.65;1.23;;;;;;;;;;4991239;28;20196;-83
2022/06/10 15:50:56;;;;;;;4.15;1.10;;;;;;;;;;4978815;28;20197;-84
2022/06/10 15:54:14;;;;;;;2.20;1.00;;;;;;;;;;4999206;28;20181;-84
2022/06/10 15:57:20;;;;;;;1.98;1.10;;;;;;;;;;4965944;28;20223;-84
2022/06/10 16:00:26;;;;;;;18.67;2.05;;;;;;;;;;5002275;28;20189;-82
2022/06/10 16:03:32;;;;;;;1.27;1.02;;;;;;;;;;4957540;28;20204;-82
2022/06/10 16:06:36;;;;;;;5.53;1.45;;;;;;;;;;4980015;28;20219;-83
2022/06/10 16:09:40;;;;;;;2.20;1.40;;;;;;;;;;4985291;28;20183;-86
2022/06/10 16:13:00;;;;;;;2.78;1.45;;;;;;;;;;5002895;28;20193;-85
2022/06/10 16:16:06;;;;;;;3.15;1.60;;;;;;;;;;4992699;28;20225;-82
2022/06/10 16:19:11;;;;;;;2.25;1.08;;;;;;;;;;5005421;28;20188;-85
2022/06/10 16:22:18;;;;;;;3.60;1.40;;;;;;;;;;4995550;28;20191;-85
2022/06/10 16:25:23;;;;;;;2.63;1.20;;;;;;;;;;4995282;28;20219;-84
2022/06/10 16:28:40;;;;;;;12.43;1.50;;;;;;;;;;4994412;28;20199;-85
2022/06/10 16:31:45;;;;;;;1.73;1.07;;;;;;;;;;4973824;28;20571;-85
2022/06/10 16:34:49;;;;;;;3.87;1.30;;;;;;;;;;4974763;28;20182;-86
2022/06/10 16:37:56;;;;;;;1.90;1.10;;;;;;;;;;4997070;28;20180;-85
2022/06/10 16:41:00;;;;;;;3.43;1.17;;;;;;;;;;4973948;28;20659;-86
2022/06/10 16:44:11;;;;;;;2.50;1.23;;;;;;;;;;4988291;28;20221;-86
2022/06/10 16:47:15;;;;;;;4.87;1.13;;;;;;;;;;4999196;28;20231;-82
2022/06/10 16:50:22;;;;;;;3.23;1.10;;;;;;;;;;4976897;28;20184;-83
2022/06/10 16:53:26;;;;;;;2.37;1.47;;;;;;;;;;4985697;28;20188;-83
2022/06/10 16:56:36;;;;;;;2.00;1.23;;;;;;;;;;4977818;28;20224;-82
2022/06/10 16:59:40;;;;;;;2.13;1.23;;;;;;;;;;4977604;28;20639;-82
2022/06/10 17:02:50;;;;;;;1.77;1.20;;;;;;;;;;4976695;28;20528;-81
2022/06/10 17:05:54;;;;;;;1.30;1.20;;;;;;;;;;4974930;28;20221;-81
2022/06/10 17:08:58;;;;;;;4.77;1.30;;;;;;;;;;5012129;28;20181;-82
2022/06/10 17:12:03;;;;;;;2.57;1.33;;;;;;;;;;5003779;28;20183;-82
2022/06/10 17:15:10;;;;;;;2.23;1.20;;;;;;;;;;4965220;28;20172;-84
2022/06/10 17:18:19;;;;;;;2.30;1.40;;;;;;;;;;4965783;28;20523;-84
2022/06/10 17:21:24;;;;;;;3.67;1.50;;;;;;;;;;4991046;28;20640;-84
2022/06/10 17:24:28;;;;;;;2.57;1.63;;;;;;;;;;4995418;28;20214;-84
2022/06/10 17:27:37;;;;;;;2.23;1.00;;;;;;;;;;4984395;28;20190;-84
2022/06/10 17:30:44;;;;;;;3.30;1.13;;;;;;;;;;4983967;28;20184;-84
2022/06/10 17:33:50;;;;;;;2.43;1.20;;;;;;;;;;4984809;28;20194;-84
2022/06/10 17:36:56;;;;;;;3.00;1.30;;;;;;;;;;5000325;28;20221;-83
2022/06/10 17:40:00;;;;;;;1.30;1.20;;;;;;;;;;4975474;28;20194;-83
2022/06/10 17:43:04;;;;;;;4.20;1.13;;;;;;;;;;4981433;28;20546;-83
2022/06/10 17:46:30;;;;;;;1.90;1.00;;;;;;;;;;4973005;28;20693;-83
2022/06/10 17:49:38;;;;;;;1.47;1.13;;;;;;;;;;4981490;28;20194;-84
2022/06/10 17:52:42;;;;;;;3.90;1.40;;;;;;;;;;5004433;28;20182;-83
2022/06/10 17:55:46;;;;;;;1.70;1.13;;;;;;;;;;5004006;28;20209;-83
2022/06/10 17:58:50;;;;;;;2.03;1.10;;;;;;;;;;4985027;28;20198;-84
2022/06/10 18:01:54;;;;;;;2.83;1.37;;;;;;;;;;5003395;28;20189;-83
2022/06/10 18:05:00;;;;;;;2.63;1.27;;;;;;;;;;4984781;28;20210;-83
2022/06/10 18:08:13;;;;;;;1.03;0.90;;;;;;;;;;4984311;28;20190;-83
2022/06/10 18:11:21;;;;;;;4.43;1.60;;;;;;;;;;4986049;28;20198;-84
2022/06/10 18:17:52;;;;;;;3.47;1.50;;;;;;;;;;5014800;28;20177;-84
2022/06/10 18:20:56;;;;;;;1.97;1.17;;;;;;;;;;4992568;28;20190;-84
2022/06/10 18:24:00;;;;;;;2.87;1.30;;;;;;;;;;4977512;28;20209;-83
2022/06/10 18:27:05;;;;;;;2.07;1.37;;;;;;;;;;4983406;28;20233;-84
2022/06/10 18:30:17;;;;;;;2.20;1.23;;;;;;;;;;4988072;28;20193;-82
2022/06/10 18:33:22;;;;;;;3.23;1.33;;;;;;;;;;5003682;28;20178;-82
2022/06/10 18:36:26;;;;;;;3.27;1.70;;;;;;;;;;5013636;28;20225;-83
2022/06/10 18:39:31;;;;;;;5.70;1.47;;;;;;;;;;5001136;28;20233;-82
2022/06/10 18:42:35;;;;;;;7.13;1.57;;;;;;;;;;4993928;28;20189;-82
2022/06/10 18:45:39;;;;;;;4.53;1.27;;;;;;;;;;4996747;28;20226;-83
2022/06/10 18:48:56;;;;;;;2.67;1.60;;;;;;;;;;4973064;28;20182;-84
2022/06/10 18:52:01;;;;;;;1.93;1.20;;;;;;;;;;4987990;28;20190;-85
2022/06/10 18:55:06;;;;;;;3.83;1.50;;;;;;;;;;5000399;28;20193;-84
2022/06/10 18:58:10;;;;;;;3.90;1.50;;;;;;;;;;4990507;28;20201;-84
2022/06/10 19:01:27;;;;;;;4.40;1.33;;;;;;;;;;4968091;28;20217;-84
2022/06/10 19:04:42;;;;;;;2.20;1.13;;;;;;;;;;5001472;28;20221;-84
2022/06/10 19:07:48;;;;;;;1.33;1.20;;;;;;;;;;4962984;28;20539;-85
2022/06/10 19:10:53;;;;;;;1.57;1.43;;;;;;;;;;4962568;28;20198;-86
2022/06/10 19:13:58;;;;;;;3.70;1.20;;;;;;;;;;4962490;28;20179;-85
2022/06/10 19:17:07;;;;;;;2.50;1.37;;;;;;;;;;4985077;28;20221;-86
2022/06/10 19:20:30;;;;;;;2.20;1.20;;;;;;;;;;4973805;28;20638;-86